Afton Lake, New York
Current Conditions -  °F | °C
As of 6:09 AM on Sunday 21 Dec 2014 (Local Time) from KBGM Reporting Station
Overcast Overcast  
Wind Chill: 18°   Ceiling: 1400
Heat Index: 24°   Visibility: 10mi
Dew Point: 19°   Wind: 5mph
Humidity: 81%   Direction: 260°W
Pressure: 30.22"   Gusts: NA
Location:  42.2584°N, 75.57°W
Report Text: KBGM 211109Z 26004KT 10SM OVC014 M04/M07 A3022 RMK AO2 T10441072
Loading
Personal Weather Stations






























Interactive Weather Map New forecast layout! Learn more

10-Day Weather Forecast

Advertisements
Track Severe Weather on mobile